Time;durP1;ratioP1;P1;durP2;ratioP2;P2;SDS_P1;SDS_P2;PMS_P1;PMS_P2;Temp;Humidity;BMP_temperature;BMP_pressure;BME280_temperature;BME280_humidity;BME280_pressure;Samples;Min_cycle;Max_cycle;Signal;HPM_P1;HPM_P2
2023/04/10 00:01:18;;;;;;;16.85;9.25;;;;;;;9.35;70.57;101669.28;5014290;28;20033;-86
2023/04/10 00:03:43;;;;;;;15.52;7.93;;;;;;;9.25;70.75;101652.34;5014410;28;20025;-86
2023/04/10 00:06:09;;;;;;;16.05;10.63;;;;;;;9.01;70.83;101616.84;5030725;28;20032;-86
2023/04/10 00:08:34;;;;;;;15.95;9.20;;;;;;;9.23;70.90;101659.25;5030978;28;20022;-86
2023/04/10 00:11:00;;;;;;;15.20;9.25;;;;;;;9.37;70.69;101674.41;5014448;28;20029;-86
2023/04/10 00:13:25;;;;;;;11.32;8.18;;;;;;;9.31;70.87;101657.31;5014256;28;20029;-85
2023/04/10 00:15:51;;;;;;;15.70;9.57;;;;;;;9.32;71.04;101661.59;4997631;28;20034;-87
2023/04/10 00:18:16;;;;;;;14.40;9.52;;;;;;;9.35;71.65;101671.88;4997873;28;20040;-86
2023/04/10 00:20:42;;;;;;;14.43;9.05;;;;;;;9.28;70.94;101651.41;5013944;28;20025;-86
2023/04/10 00:23:08;;;;;;;16.85;10.25;;;;;;;9.36;70.63;101660.66;5030528;28;20037;-86
2023/04/10 00:25:33;;;;;;;16.17;9.35;;;;;;;9.40;70.12;101658.81;5014168;28;20030;-86
2023/04/10 00:27:58;;;;;;;17.27;8.57;;;;;;;9.26;70.41;101643.72;5014039;28;20037;-86
2023/04/10 00:30:24;;;;;;;14.88;9.85;;;;;;;9.27;70.38;101650.56;4997315;28;20033;-86
2023/04/10 00:32:49;;;;;;;15.45;8.75;;;;;;;9.13;70.73;101637.16;4997428;28;20049;-86
2023/04/10 00:35:15;;;;;;;13.32;9.32;;;;;;;9.28;70.38;101647.09;5014041;28;20079;-86
2023/04/10 00:37:40;;;;;;;11.40;7.72;;;;;;;9.20;70.85;101643.88;5014317;28;20029;-86
2023/04/10 00:40:07;;;;;;;20.50;8.68;;;;;;;9.19;70.73;101652.50;4997455;28;20026;-86
2023/04/10 00:42:32;;;;;;;15.35;8.57;;;;;;;9.22;70.36;101649.81;5013967;28;20464;-86
2023/04/10 00:44:58;;;;;;;15.32;9.88;;;;;;;9.08;70.87;101644.19;5013384;28;20033;-86
2023/04/10 00:47:24;;;;;;;27.25;10.52;;;;;;;9.00;70.91;101625.47;5030112;28;20079;-86
2023/04/10 00:49:50;;;;;;;16.00;10.02;;;;;;;9.07;70.84;101642.50;4997406;28;20087;-87
2023/04/10 00:52:15;;;;;;;16.10;9.23;;;;;;;9.00;70.62;101635.81;5029861;28;20025;-87
2023/04/10 00:54:40;;;;;;;14.85;8.68;;;;;;;8.87;70.70;101612.91;4997277;28;20383;-86
2023/04/10 00:57:06;;;;;;;14.88;8.77;;;;;;;8.98;71.27;101637.59;5013913;28;20033;-86
2023/04/10 00:59:32;;;;;;;15.68;9.95;;;;;;;8.95;71.78;101642.81;5013348;28;20068;-86
2023/04/10 01:01:57;;;;;;;17.40;8.90;;;;;;;8.96;71.75;101641.94;5013669;28;20033;-86
2023/04/10 01:04:25;;;;;;;14.88;8.55;;;;;;;8.89;71.88;101625.75;5029839;28;20036;-86
2023/04/10 01:07:10;;;;;;;13.90;8.98;;;;;;;8.98;72.31;101648.75;5029996;28;20025;-87
2023/04/10 01:10:00;;;;;;;12.95;8.55;;;;;;;9.01;71.69;101634.91;5029871;28;20040;-86
2023/04/10 01:12:44;;;;;;;21.60;9.00;;;;;;;9.04;71.24;101637.41;5045642;28;20048;-86
2023/04/10 01:15:15;;;;;;;17.17;9.00;;;;;;;8.97;71.60;101628.16;5030327;28;20021;-86
2023/04/10 01:17:55;;;;;;;15.52;10.02;;;;;;;8.96;71.35;101623.88;5013540;28;20036;-87
2023/04/10 01:20:21;;;;;;;15.32;9.77;;;;;;;8.76;71.65;101596.00;4998472;28;20095;-86
2023/04/10 01:23:18;;;;;;;11.90;8.32;;;;;;;9.02;71.36;101639.19;5029571;28;20475;-87
2023/04/10 01:26:00;;;;;;;13.90;8.25;;;;;;;8.89;71.81;101611.13;5030887;28;20036;-87
2023/04/10 01:29:05;;;;;;;15.88;9.90;;;;;;;9.01;72.23;101633.19;5014656;28;20033;-86
2023/04/10 01:31:49;;;;;;;13.77;7.85;;;;;;;9.02;72.25;101628.88;5019538;28;20079;-86
2023/04/10 01:34:18;;;;;;;14.02;9.10;;;;;;;9.04;72.22;101629.66;5046101;28;20078;-85
2023/04/10 01:37:07;;;;;;;17.77;10.07;;;;;;;8.95;71.60;101612.72;5013605;28;20083;-86
2023/04/10 01:39:35;;;;;;;14.77;7.90;;;;;;;9.03;71.90;101625.38;5013266;28;20037;-87
2023/04/10 01:42:01;;;;;;;13.80;8.73;;;;;;;9.02;71.97;101623.69;4996983;28;20061;-86
2023/04/10 01:44:28;;;;;;;13.38;9.10;;;;;;;9.02;71.90;101629.72;5012918;28;20028;-86
2023/04/10 01:46:54;;;;;;;15.45;8.98;;;;;;;9.06;71.44;101622.75;4996833;28;20411;-86
2023/04/10 01:49:20;;;;;;;16.27;8.13;;;;;;;9.11;70.63;101620.88;5012901;28;20167;-86
2023/04/10 01:51:46;;;;;;;16.15;8.70;;;;;;;9.18;70.37;101633.59;5013046;28;20197;-86
2023/04/10 01:54:11;;;;;;;14.25;8.98;;;;;;;9.12;69.97;101614.81;5013162;28;20069;-86
2023/04/10 01:56:37;;;;;;;14.68;9.32;;;;;;;9.03;70.19;101599.59;5012729;28;20112;-87
2023/04/10 01:59:02;;;;;;;18.25;9.40;;;;;;;9.15;70.19;101618.19;5012237;28;20080;-87
2023/04/10 02:01:28;;;;;;;12.48;8.07;;;;;;;9.08;70.49;101608.06;5012779;28;20030;-86
2023/04/10 02:03:54;;;;;;;15.85;10.07;;;;;;;9.17;70.57;101623.31;4996401;28;20510;-87
2023/04/10 02:06:37;;;;;;;16.17;9.27;;;;;;;9.11;70.13;101610.56;5012937;28;20418;-87
2023/04/10 02:09:15;;;;;;;14.98;9.98;;;;;;;9.01;70.75;101591.03;5045763;28;20142;-86
2023/04/10 02:11:53;;;;;;;20.17;9.23;;;;;;;9.03;70.70;101595.25;5028925;28;20030;-86
2023/04/10 02:14:19;;;;;;;15.40;8.45;;;;;;;9.13;70.72;101603.59;5014415;28;20041;-87
2023/04/10 02:16:45;;;;;;;16.75;9.23;;;;;;;9.14;70.99;101615.63;5012755;28;20416;-87
2023/04/10 02:19:11;;;;;;;10.20;7.53;;;;;;;9.12;71.06;101600.19;5012888;28;20044;-86
2023/04/10 02:21:36;;;;;;;16.63;9.57;;;;;;;9.10;70.69;101595.94;4996204;28;20030;-86
2023/04/10 02:24:02;;;;;;;16.83;9.18;;;;;;;9.09;70.88;101605.44;5032487;28;20083;-87
2023/04/10 02:26:27;;;;;;;10.48;7.75;;;;;;;9.07;71.14;101601.22;5016038;28;20186;-86
2023/04/10 02:28:53;;;;;;;19.45;9.60;;;;;;;9.03;70.75;101599.59;5032702;28;20029;-86
2023/04/10 02:31:18;;;;;;;20.10;10.57;;;;;;;8.79;70.88;101547.75;4999727;28;20502;-87
2023/04/10 02:33:44;;;;;;;14.45;9.00;;;;;;;9.12;70.33;101614.81;5034008;28;20772;-86
2023/04/10 02:36:09;;;;;;;33.60;9.15;;;;;;;9.13;69.46;101607.03;5016554;28;20030;-85
2023/04/10 02:38:35;;;;;;;14.20;8.35;;;;;;;9.05;69.82;101597.81;5016114;28;20029;-87
2023/04/10 02:41:00;;;;;;;21.20;9.98;;;;;;;8.92;69.83;101581.81;5033306;28;20029;-86
2023/04/10 02:43:26;;;;;;;14.55;9.32;;;;;;;8.73;69.77;101547.91;5016349;28;20034;-86
2023/04/10 02:45:52;;;;;;;20.55;11.15;;;;;;;9.02;69.65;101590.16;5032628;28;20124;-86
2023/04/10 02:48:17;;;;;;;14.98;9.25;;;;;;;8.99;70.11;101597.97;5032534;28;20079;-86
2023/04/10 02:50:45;;;;;;;15.23;8.75;;;;;;;9.00;70.12;101603.09;5032176;28;20041;-86
2023/04/10 02:53:12;;;;;;;16.75;9.85;;;;;;;8.94;69.92;101599.81;5000104;28;20029;-86
2023/04/10 02:55:38;;;;;;;14.38;8.75;;;;;;;8.96;70.28;101600.66;5016032;28;20120;-85
2023/04/10 02:58:04;;;;;;;15.52;9.85;;;;;;;8.83;70.05;101587.22;4999391;28;20021;-85
2023/04/10 03:00:30;;;;;;;17.40;10.75;;;;;;;8.89;70.58;101605.13;5031998;28;20037;-86
2023/04/10 03:02:55;;;;;;;16.25;9.05;;;;;;;8.85;70.66;101598.34;4999532;28;20071;-85
2023/04/10 03:05:21;;;;;;;14.82;8.95;;;;;;;8.99;70.56;101600.56;5015585;28;20040;-87
2023/04/10 03:07:46;;;;;;;10.88;8.02;;;;;;;8.97;69.68;101579.97;5015667;28;20486;-87
2023/04/10 03:10:11;;;;;;;18.20;9.20;;;;;;;9.07;69.39;101602.06;5031554;28;20063;-88
2023/04/10 03:12:37;;;;;;;13.00;9.05;;;;;;;8.86;69.89;101574.25;5015579;28;20030;-88
2023/04/10 03:15:03;;;;;;;19.13;9.45;;;;;;;9.03;69.54;101602.16;5032074;28;20525;-88
2023/04/10 03:17:28;;;;;;;13.20;8.48;;;;;;;9.06;69.85;101605.53;4999154;28;20083;-88
2023/04/10 03:19:54;;;;;;;13.10;8.80;;;;;;;8.83;69.77;101582.03;4998962;28;20505;-87
2023/04/10 03:22:19;;;;;;;18.92;11.48;;;;;;;8.97;69.68;101605.78;5015223;28;20037;-88
2023/04/10 03:24:45;;;;;;;15.18;9.65;;;;;;;8.74;69.40;101570.22;5014808;28;20026;-88
2023/04/10 03:27:11;;;;;;;16.17;8.95;;;;;;;8.80;69.21;101590.72;5048303;28;20478;-88
2023/04/10 03:29:36;;;;;;;19.42;11.40;;;;;;;8.95;69.20;101612.72;5031556;28;20395;-88
2023/04/10 03:32:02;;;;;;;15.45;8.82;;;;;;;8.96;69.55;101623.88;5030964;28;20046;-88
2023/04/10 03:34:27;;;;;;;15.65;9.88;;;;;;;8.85;69.85;101609.53;4997709;28;20030;-88
2023/04/10 03:36:53;;;;;;;19.23;11.23;;;;;;;8.89;69.84;101605.97;5015250;28;20083;-87
2023/04/10 03:39:18;;;;;;;14.55;8.18;;;;;;;8.94;69.73;101615.31;5014945;28;20033;-84
2023/04/10 03:41:44;;;;;;;16.95;10.35;;;;;;;8.98;69.83;101622.94;5032505;28;20495;-86
2023/04/10 03:44:09;;;;;;;17.98;10.07;;;;;;;8.87;70.33;101622.38;4998570;28;20037;-82
2023/04/10 03:46:35;;;;;;;16.80;11.85;;;;;;;8.82;69.93;101617.31;5047925;28;20029;-83
2023/04/10 03:49:00;;;;;;;17.75;10.68;;;;;;;8.56;71.03;101609.41;5031380;28;20037;-83
2023/04/10 03:51:26;;;;;;;17.20;8.68;;;;;;;8.53;71.58;101630.09;5031243;28;20022;-83
2023/04/10 03:53:51;;;;;;;19.35;10.95;;;;;;;8.57;71.36;101631.75;5030940;28;20032;-83
2023/04/10 03:56:17;;;;;;;22.73;13.25;;;;;;;8.54;71.79;101639.53;5014595;28;20724;-84
2023/04/10 03:58:42;;;;;;;17.58;9.75;;;;;;;8.28;72.21;101609.22;5014634;28;20025;-83
2023/04/10 04:01:08;;;;;;;22.00;11.25;;;;;;;8.38;72.14;101627.91;5014285;28;20084;-83
2023/04/10 04:03:33;;;;;;;23.65;13.75;;;;;;;8.31;72.40;101620.28;5014573;28;20022;-83
2023/04/10 04:05:59;;;;;;;21.23;12.15;;;;;;;8.31;72.78;101635.75;5030983;28;20529;-83
2023/04/10 04:08:24;;;;;;;16.67;11.57;;;;;;;8.26;72.70;101637.59;5012390;28;20079;-84
2023/04/10 04:10:50;;;;;;;19.23;12.10;;;;;;;8.26;72.70;101635.03;5009461;28;20108;-85
2023/04/10 04:13:15;;;;;;;20.45;13.02;;;;;;;8.09;72.69;101613.94;5027346;28;20044;-84
2023/04/10 04:15:41;;;;;;;25.52;13.23;;;;;;;8.29;72.39;101653.00;5010831;28;20149;-84
2023/04/10 04:18:06;;;;;;;25.02;14.90;;;;;;;8.17;72.56;101632.66;4998698;28;20041;-83
2023/04/10 04:20:32;;;;;;;68.80;38.47;;;;;;;8.10;72.70;101619.94;5026712;28;20484;-83
2023/04/10 04:22:57;;;;;;;28.48;15.30;;;;;;;8.28;72.78;101653.88;5025630;28;20032;-83
2023/04/10 04:25:23;;;;;;;19.65;12.82;;;;;;;8.24;72.93;101652.22;5030068;28;20058;-85
2023/04/10 04:27:48;;;;;;;21.00;12.43;;;;;;;8.33;72.94;101659.75;5012903;28;20455;-81
2023/04/10 04:30:14;;;;;;;17.85;10.90;;;;;;;8.28;72.71;101643.56;5029801;28;20113;-86
2023/04/10 04:32:39;;;;;;;20.05;11.63;;;;;;;8.30;72.87;101654.69;5015445;28;20049;-91
2023/04/10 04:35:06;;;;;;;17.90;11.75;;;;;;;8.39;72.65;101655.41;5012355;28;20511;-93
2023/04/10 04:37:31;;;;;;;22.70;13.13;;;;;;;8.27;72.70;101639.28;4996583;28;20029;-90
2023/04/10 04:39:56;;;;;;;22.83;14.52;;;;;;;8.30;72.61;101639.22;5005445;28;20445;-88
2023/04/10 04:42:22;;;;;;;20.42;12.43;;;;;;;8.41;72.77;101653.63;5029056;28;20411;-82
2023/04/10 04:44:48;;;;;;;24.35;13.38;;;;;;;8.46;72.69;101651.78;5030322;28;20044;-85
2023/04/10 04:47:14;;;;;;;17.33;11.40;;;;;;;8.44;72.17;101651.81;5007517;28;20034;-88
2023/04/10 04:49:39;;;;;;;21.77;13.55;;;;;;;8.43;72.13;101638.94;4994531;28;20026;-84
2023/04/10 04:52:05;;;;;;;28.08;13.65;;;;;;;8.62;71.63;101653.94;5010441;28;20036;-82
2023/04/10 04:54:30;;;;;;;28.17;15.88;;;;;;;8.50;71.96;101641.34;5033264;28;20032;-82
2023/04/10 04:56:56;;;;;;;33.25;17.67;;;;;;;8.58;72.06;101654.06;5024685;28;20029;-87
2023/04/10 04:59:22;;;;;;;29.95;15.25;;;;;;;8.61;72.09;101651.41;5013735;28;20536;-87
2023/04/10 05:01:47;;;;;;;24.13;14.45;;;;;;;8.67;72.01;101648.69;5027197;28;20041;-89
2023/04/10 05:04:13;;;;;;;24.33;14.25;;;;;;;8.82;70.60;101671.50;5014335;28;20044;-87
2023/04/10 05:06:38;;;;;;;27.08;13.45;;;;;;;8.65;70.39;101645.28;5010490;28;20422;-86
2023/04/10 05:09:04;;;;;;;31.30;13.40;;;;;;;8.83;70.12;101675.78;5024029;28;20162;-92
2023/04/10 05:11:29;;;;;;;19.05;10.90;;;;;;;8.82;70.76;101658.59;5007524;28;20080;-86
2023/04/10 05:13:55;;;;;;;20.88;12.88;;;;;;;8.82;70.21;101648.28;5026748;28;20029;-86
2023/04/10 05:16:22;;;;;;;21.08;13.82;;;;;;;9.00;70.00;101666.78;5028532;28;20050;-92
2023/04/10 05:18:47;;;;;;;31.33;14.10;;;;;;;9.05;69.44;101675.25;5029004;28;20041;-91
2023/04/10 05:21:13;;;;;;;20.23;11.98;;;;;;;9.10;68.74;101668.22;5004997;28;20056;-90
2023/04/10 05:23:38;;;;;;;20.15;12.98;;;;;;;9.17;68.29;101675.78;5009722;28;20060;-88
2023/04/10 05:26:04;;;;;;;19.52;10.75;;;;;;;9.21;68.36;101676.53;5013195;28;20029;-90
2023/04/10 05:28:30;;;;;;;17.90;12.52;;;;;;;9.12;67.87;101672.47;5017189;28;20075;-93
2023/04/10 05:30:56;;;;;;;20.92;13.38;;;;;;;9.14;68.08;101667.25;5015601;28;20029;-90
2023/04/10 05:33:22;;;;;;;27.58;13.13;;;;;;;9.35;68.11;101695.09;5029248;28;20033;-90
2023/04/10 05:35:47;;;;;;;22.20;11.77;;;;;;;9.46;67.14;101692.25;5011837;28;20040;-90
2023/04/10 05:38:13;;;;;;;16.77;12.00;;;;;;;9.53;66.93;101688.56;5011034;28;20025;-93
2023/04/10 05:40:38;;;;;;;28.27;13.10;;;;;;;9.61;66.88;101698.69;5012971;28;20037;-88
2023/04/10 05:43:04;;;;;;;22.23;11.23;;;;;;;9.59;66.55;101661.72;5028918;28;20030;-90
2023/04/10 05:45:29;;;;;;;25.98;14.13;;;;;;;9.89;66.20;101694.44;5017805;28;20052;-92
2023/04/10 05:47:55;;;;;;;21.67;14.27;;;;;;;9.92;64.85;101684.00;5029949;28;20033;-86
2023/04/10 05:50:21;;;;;;;22.10;12.98;;;;;;;9.86;65.14;101691.13;5029558;28;20030;-92
2023/04/10 05:52:46;;;;;;;15.45;10.45;;;;;;;9.83;64.79;101681.69;4996913;28;20521;-87
2023/04/10 05:55:12;;;;;;;22.15;11.60;;;;;;;9.98;64.15;101694.19;5000798;28;20482;-90
2023/04/10 05:57:38;;;;;;;23.92;11.75;;;;;;;9.96;64.44;101671.88;5013185;28;20398;-89
2023/04/10 06:00:04;;;;;;;36.78;13.48;;;;;;;10.10;63.74;101684.38;5033697;28;20029;-88
2023/04/10 06:02:29;;;;;;;23.73;13.18;;;;;;;10.07;63.84;101678.41;5017128;28;20026;-92
2023/04/10 06:04:55;;;;;;;20.13;10.63;;;;;;;10.01;63.16;101691.50;5029437;28;20052;-89
2023/04/10 06:07:20;;;;;;;20.77;11.15;;;;;;;10.08;63.29;101681.81;5032587;28;20029;-91
2023/04/10 06:09:46;;;;;;;26.48;14.63;;;;;;;10.29;63.06;101688.97;5001934;28;20063;-91
2023/04/10 06:12:11;;;;;;;25.90;13.13;;;;;;;10.43;62.61;101683.38;5034577;28;20063;-89
2023/04/10 06:14:37;;;;;;;21.48;10.93;;;;;;;10.51;62.36;101685.69;5031494;28;20426;-89
2023/04/10 06:17:02;;;;;;;20.23;10.45;;;;;;;10.55;61.65;101682.13;5042592;28;20092;-91
2023/04/10 06:19:27;;;;;;;18.98;11.23;;;;;;;10.69;61.94;101685.13;5032110;28;20040;-83
2023/04/10 06:21:53;;;;;;;21.73;10.90;;;;;;;10.69;61.07;101673.91;5017791;28;20025;-92
2023/04/10 06:24:18;;;;;;;20.67;11.02;;;;;;;10.84;60.95;101686.38;5010988;28;20391;-86
2023/04/10 06:26:44;;;;;;;18.25;10.27;;;;;;;10.85;60.94;101680.28;5009199;28;20060;-92
2023/04/10 06:29:10;;;;;;;18.23;9.90;;;;;;;10.87;59.22;101668.13;5009139;28;20036;-85
2023/04/10 06:31:38;;;;;;;15.60;9.70;;;;;;;10.85;59.87;101670.78;5032462;28;20056;-93
2023/04/10 06:34:04;;;;;;;15.82;9.43;;;;;;;11.11;60.22;101684.56;5032325;28;20505;-87
2023/04/10 06:36:29;;;;;;;19.73;11.25;;;;;;;11.14;59.86;101687.91;5017944;28;20041;-92
2023/04/10 06:38:55;;;;;;;23.00;10.95;;;;;;;11.19;59.82;101687.75;5029669;28;20018;-89
2023/04/10 06:41:20;;;;;;;17.10;9.75;;;;;;;10.89;59.62;101650.81;5031448;28;20037;-92
2023/04/10 06:43:46;;;;;;;16.42;9.40;;;;;;;11.04;59.21;101662.41;5032097;28;20029;-88
2023/04/10 06:46:11;;;;;;;23.20;9.98;;;;;;;11.33;59.17;101695.06;5034387;28;20079;-92
2023/04/10 06:48:37;;;;;;;16.55;10.30;;;;;;;11.28;59.14;101652.91;5013687;28;20098;-89
2023/04/10 06:51:03;;;;;;;17.10;9.90;;;;;;;11.63;57.41;101706.91;5028058;28;20770;-85
2023/04/10 06:53:28;;;;;;;19.25;11.55;;;;;;;11.59;58.07;101694.94;5013459;28;20128;-89
2023/04/10 06:55:54;;;;;;;21.88;10.65;;;;;;;11.68;58.38;101702.41;5029712;28;20801;-83
2023/04/10 06:58:20;;;;;;;20.05;12.00;;;;;;;11.68;57.43;101696.38;5013884;28;20033;-89
2023/04/10 07:00:46;;;;;;;16.63;9.73;;;;;;;11.80;57.90;101706.34;5030208;28;20029;-85
2023/04/10 07:03:12;;;;;;;34.03;16.48;;;;;;;11.83;57.68;101700.19;5034747;28;20033;-90
2023/04/10 07:05:38;;;;;;;20.73;11.73;;;;;;;11.75;57.86;101709.06;5032061;28;20174;-92
2023/04/10 07:08:04;;;;;;;103.72;49.50;;;;;;;11.74;58.38;101697.00;4998725;28;20029;-90
2023/04/10 07:10:30;;;;;;;25.08;13.45;;;;;;;11.85;57.51;101690.59;5029404;28;20056;-84
2023/04/10 07:12:59;;;;;;;24.10;13.45;;;;;;;11.93;58.15;101683.41;5032948;28;20025;-91
2023/04/10 07:15:24;;;;;;;20.95;12.18;;;;;;;12.14;58.10;101707.66;5013031;28;20044;-92
2023/04/10 07:17:50;;;;;;;21.50;10.85;;;;;;;12.13;57.11;101717.19;5023441;28;20029;-89
2023/04/10 07:20:16;;;;;;;17.73;10.88;;;;;;;12.19;57.11;101716.09;4998557;28;20479;-89
2023/04/10 07:22:41;;;;;;;21.88;11.30;;;;;;;12.10;56.54;101701.75;5014224;28;20577;-86
2023/04/10 07:25:07;;;;;;;24.77;10.90;;;;;;;12.16;56.44;101700.66;5033347;28;20083;-85
2023/04/10 07:27:33;;;;;;;22.23;10.90;;;;;;;12.24;56.55;101699.47;5011573;28;20026;-85
2023/04/10 07:30:01;;;;;;;21.38;11.75;;;;;;;12.53;56.39;101726.03;5029186;28;20083;-90
2023/04/10 07:32:26;;;;;;;18.85;10.27;;;;;;;12.55;55.54;101719.88;5005298;28;20064;-86
2023/04/10 07:34:52;;;;;;;21.75;11.05;;;;;;;12.61;55.29;101711.00;5021842;28;20434;-86
2023/04/10 07:37:18;;;;;;;29.00;14.98;;;;;;;12.64;55.46;101713.47;5012778;28;20494;-87
2023/04/10 07:39:43;;;;;;;22.85;11.10;;;;;;;12.62;55.21;101710.94;5030143;28;20029;-84
2023/04/10 07:42:10;;;;;;;20.70;11.02;;;;;;;12.49;54.77;101704.56;5012753;28;20037;-87
2023/04/10 07:44:35;;;;;;;16.00;9.52;;;;;;;12.49;55.86;101699.38;5012128;28;20044;-88
2023/04/10 07:47:02;;;;;;;20.38;10.30;;;;;;;12.64;55.95;101713.47;5028372;28;20026;-84
2023/04/10 07:49:27;;;;;;;21.50;10.32;;;;;;;12.70;55.73;101700.25;5013652;28;20133;-87
2023/04/10 07:51:53;;;;;;;17.25;9.30;;;;;;;12.67;55.57;101691.72;5029267;28;20083;-85
2023/04/10 07:54:18;;;;;;;15.98;8.10;;;;;;;12.78;55.50;101708.56;5029426;28;20037;-84
2023/04/10 07:56:44;;;;;;;19.00;9.55;;;;;;;12.81;55.17;101697.22;5030927;28;20502;-87
2023/04/10 07:59:09;;;;;;;19.52;10.15;;;;;;;12.76;55.26;101683.56;5029767;28;20021;-90
2023/04/10 08:01:35;;;;;;;17.20;10.23;;;;;;;12.95;54.87;101705.25;5030497;28;20028;-91
2023/04/10 08:04:07;;;;;;;22.23;11.85;;;;;;;13.08;54.89;101698.66;4998307;28;20030;-90
2023/04/10 08:06:32;;;;;;;20.08;10.02;;;;;;;13.13;53.97;101706.25;5013532;28;20068;-83
2023/04/10 08:08:58;;;;;;;20.38;11.13;;;;;;;13.22;54.08;101700.69;5022442;28;20037;-84
2023/04/10 08:11:26;;;;;;;31.15;10.95;;;;;;;13.34;54.13;101705.34;5031285;28;20029;-88
2023/04/10 08:13:52;;;;;;;20.63;11.00;;;;;;;13.43;53.34;101704.97;5031218;28;20037;-88
2023/04/10 08:16:21;;;;;;;26.55;10.55;;;;;;;13.55;53.17;101706.16;5030355;28;20132;-87
2023/04/10 08:18:47;;;;;;;27.60;12.02;;;;;;;13.55;53.44;101698.38;5031527;28;20037;-88
2023/04/10 08:21:12;;;;;;;21.98;10.82;;;;;;;13.63;53.18;101700.63;5012669;28;20529;-87
2023/04/10 08:23:38;;;;;;;25.13;11.82;;;;;;;13.58;52.67;101695.66;5010913;28;20034;-88
2023/04/10 08:26:04;;;;;;;23.77;12.02;;;;;;;13.72;52.81;101689.81;5026328;28;20045;-89
2023/04/10 08:28:31;;;;;;;22.92;10.90;;;;;;;13.92;52.35;101701.94;5029278;28;20124;-93
2023/04/10 08:30:56;;;;;;;23.38;11.95;;;;;;;13.91;53.24;101685.47;5013272;28;20025;-90
2023/04/10 08:33:25;;;;;;;20.05;10.63;;;;;;;13.99;51.77;101688.56;5022751;28;20053;-86
2023/04/10 08:35:51;;;;;;;21.48;10.82;;;;;;;14.04;52.31;101685.75;5006763;28;20052;-84
2023/04/10 08:38:16;;;;;;;24.45;11.77;;;;;;;14.26;51.28;101683.00;5027030;28;20490;-85
2023/04/10 08:40:43;;;;;;;21.50;10.70;;;;;;;14.26;50.97;101685.59;5009001;28;20331;-85
2023/04/10 08:43:08;;;;;;;19.75;10.10;;;;;;;14.13;51.21;101648.03;5010208;28;20029;-84
2023/04/10 08:45:34;;;;;;;16.83;9.63;;;;;;;14.40;51.58;101677.97;5021642;28;20099;-86
2023/04/10 08:48:01;;;;;;;19.30;9.70;;;;;;;14.39;51.18;101655.47;5012054;28;20051;-84
2023/04/10 08:50:26;;;;;;;25.33;12.15;;;;;;;14.59;51.15;101673.59;5025874;28;20037;-93
2023/04/10 08:52:52;;;;;;;20.73;10.05;;;;;;;14.84;50.53;101683.63;5021143;28;20030;-86
2023/04/10 08:55:18;;;;;;;23.80;10.45;;;;;;;14.84;50.49;101662.78;5012040;28;20568;-86
2023/04/10 08:57:44;;;;;;;20.95;10.95;;;;;;;14.86;48.81;101655.75;5012770;28;20403;-84
2023/04/10 09:00:10;;;;;;;27.90;13.13;;;;;;;15.03;49.12;101680.09;5029856;28;20021;-87
2023/04/10 09:02:40;;;;;;;24.23;11.75;;;;;;;15.03;48.88;101678.31;5026971;28;20084;-85
2023/04/10 09:05:08;;;;;;;20.00;11.57;;;;;;;14.97;48.82;101664.78;5020197;28;20124;-85
2023/04/10 09:07:34;;;;;;;23.25;11.95;;;;;;;14.91;49.34;101663.31;5009130;28;20041;-89
2023/04/10 09:09:59;;;;;;;20.25;10.75;;;;;;;15.00;49.46;101657.66;5010921;28;20022;-87
2023/04/10 09:12:25;;;;;;;22.75;11.60;;;;;;;15.14;49.57;101656.94;5010581;28;20037;-85
2023/04/10 09:14:52;;;;;;;17.50;10.23;;;;;;;15.33;48.83;101659.44;5028037;28;20029;-82
2023/04/10 09:17:17;;;;;;;25.48;12.73;;;;;;;15.46;47.95;101660.47;5027595;28;20451;-82
2023/04/10 09:19:46;;;;;;;22.15;8.85;;;;;;;15.63;47.35;101673.50;5028307;28;20501;-86
2023/04/10 09:22:12;;;;;;;23.75;12.70;;;;;;;15.64;48.33;101664.75;5011411;28;20083;-89
2023/04/10 09:24:38;;;;;;;20.50;10.52;;;;;;;15.65;48.28;101661.22;5029857;28;20037;-89
2023/04/10 09:27:05;;;;;;;18.20;10.40;;;;;;;15.69;48.05;101661.88;5010801;28;20036;-92
2023/04/10 09:29:42;;;;;;;25.15;11.82;;;;;;;15.63;48.55;101649.16;5012105;28;20450;-89
2023/04/10 09:32:08;;;;;;;25.55;12.48;;;;;;;15.75;48.40;101651.97;5028256;28;20041;-87
2023/04/10 09:34:41;;;;;;;19.80;11.35;;;;;;;15.93;47.21;101651.91;5027049;28;20033;-92
2023/04/10 09:37:07;;;;;;;25.08;11.13;;;;;;;15.86;46.69;101640.09;5028014;28;20037;-88
2023/04/10 09:39:34;;;;;;;18.55;9.48;;;;;;;15.90;45.71;101634.63;5011052;28;20030;-89
2023/04/10 09:41:59;;;;;;;18.38;10.15;;;;;;;16.19;47.22;101640.84;5027274;28;20018;-92
2023/04/10 09:44:33;;;;;;;19.50;10.07;;;;;;;16.21;46.81;101635.50;5012269;28;20037;-86
2023/04/10 09:47:13;;;;;;;21.23;10.15;;;;;;;16.26;46.49;101647.41;5009156;28;20025;-89
2023/04/10 09:49:47;;;;;;;21.27;10.77;;;;;;;16.38;44.73;101635.41;5036885;28;20545;-89
2023/04/10 09:52:20;;;;;;;19.05;10.02;;;;;;;16.53;44.55;101641.53;5034589;28;20517;-92
2023/04/10 09:54:45;;;;;;;18.33;10.38;;;;;;;16.52;44.80;101634.63;5038886;28;20056;-95
2023/04/10 09:57:13;;;;;;;28.88;18.02;;;;;;;16.60;44.27;101614.94;5044489;28;20025;-89
2023/04/10 09:59:39;;;;;;;18.48;10.98;;;;;;;16.85;45.61;101630.06;5016356;28;20077;-91
2023/04/10 10:02:05;;;;;;;18.70;10.45;;;;;;;16.96;44.52;101628.59;4997051;28;20438;-85
2023/04/10 10:04:30;;;;;;;18.65;9.93;;;;;;;16.88;44.57;101608.97;5010427;28;20033;-86
2023/04/10 10:06:56;;;;;;;21.27;10.48;;;;;;;17.08;42.82;101633.06;5011518;28;20029;-86
2023/04/10 10:09:21;;;;;;;18.60;10.68;;;;;;;17.08;43.51;101625.22;5011911;28;20026;-86
2023/04/10 10:11:47;;;;;;;18.63;9.98;;;;;;;16.91;43.12;101611.41;5027004;28;20556;-93
2023/04/10 10:14:14;;;;;;;19.67;10.82;;;;;;;16.99;43.87;101613.56;5011247;28;20040;-91
2023/04/10 10:16:46;;;;;;;20.88;10.38;;;;;;;17.15;44.10;101601.25;5011500;28;20104;-86
2023/04/10 10:19:37;;;;;;;24.93;11.37;;;;;;;17.06;44.00;101612.25;5026552;28;20094;-87
2023/04/10 10:22:03;;;;;;;20.30;9.90;;;;;;;17.05;43.91;101612.34;5022114;28;20449;-89
2023/04/10 10:24:28;;;;;;;16.52;8.77;;;;;;;17.02;42.93;101579.41;5010261;28;20025;-85
2023/04/10 10:26:57;;;;;;;19.65;10.65;;;;;;;17.03;41.83;101575.00;5010082;28;20033;-89
2023/04/10 10:29:22;;;;;;;21.85;10.93;;;;;;;17.24;42.11;101596.38;5026552;28;20025;-82
2023/04/10 10:31:48;;;;;;;20.65;11.48;;;;;;;17.28;41.55;101598.72;5026674;28;20490;-85
2023/04/10 10:34:15;;;;;;;18.85;11.07;;;;;;;17.34;41.77;101587.88;5011133;28;20026;-86
2023/04/10 10:36:40;;;;;;;19.08;10.68;;;;;;;17.38;42.25;101581.50;5027136;28;20104;-87
2023/04/10 10:39:27;;;;;;;17.52;9.73;;;;;;;17.46;41.68;101578.41;5026136;28;20533;-89
2023/04/10 10:42:09;;;;;;;20.67;11.38;;;;;;;17.57;41.34;101589.06;5027854;28;20100;-89
2023/04/10 10:44:48;;;;;;;19.90;11.33;;;;;;;17.59;41.40;101581.09;5026734;28;20037;-86
2023/04/10 10:47:22;;;;;;;17.00;10.18;;;;;;;17.53;41.50;101552.72;5015960;28;20025;-91
2023/04/10 10:49:55;;;;;;;21.75;11.55;;;;;;;17.75;41.51;101561.75;5031095;28;20033;-88
2023/04/10 10:52:39;;;;;;;21.05;11.10;;;;;;;18.00;40.51;101568.88;5016700;28;20545;-92
2023/04/10 10:55:38;;;;;;;21.27;10.88;;;;;;;18.06;40.07;101565.84;5047616;28;20383;-91
2023/04/10 10:58:07;;;;;;;22.27;10.02;;;;;;;17.85;40.86;101533.22;5032018;28;20033;-84
2023/04/10 11:00:51;;;;;;;18.42;10.10;;;;;;;18.13;40.59;101557.59;5030609;28;20080;-88
2023/04/10 11:03:16;;;;;;;17.08;10.23;;;;;;;18.32;40.90;101553.66;5032386;28;20033;-88
2023/04/10 11:05:57;;;;;;;24.30;13.00;;;;;;;18.59;39.66;101548.34;5046961;28;20031;-88
2023/04/10 11:08:32;;;;;;;19.35;10.32;;;;;;;18.30;39.89;101541.59;5031004;28;20025;-94
2023/04/10 11:11:16;;;;;;;20.23;10.13;;;;;;;18.47;40.06;101541.28;5034427;28;20026;-94
2023/04/10 11:13:57;;;;;;;21.05;10.07;;;;;;;18.61;39.17;101543.81;5032943;28;20061;-87
2023/04/10 11:16:40;;;;;;;19.73;11.90;;;;;;;18.53;39.06;101503.38;5047673;28;20022;-89
2023/04/10 11:19:07;;;;;;;18.30;9.80;;;;;;;18.72;38.24;101518.69;5017441;28;20545;-89